createdAt,value
2022-08-26T16:04:09.752Z,55.19
2022-08-26T16:07:43.368Z,58.73
2022-08-26T16:11:23.089Z,59.61
2022-08-26T16:15:01.304Z,60.62
2022-08-26T16:18:40.200Z,60.49
2022-08-26T16:22:17.781Z,60.65
2022-08-26T16:25:55.425Z,60.67
2022-08-26T16:29:33.441Z,60.82
2022-08-26T16:33:14.410Z,60.43
2022-08-26T16:37:06.637Z,60.31
2022-08-26T16:40:44.283Z,60.01
2022-08-26T16:44:22.074Z,60.12
2022-08-26T16:47:59.833Z,59.77
2022-08-26T16:51:38.517Z,60.10
2022-08-26T16:55:16.162Z,60.15
2022-08-26T16:58:53.668Z,59.35
2022-08-26T17:02:32.582Z,58.81
2022-08-26T17:06:11.579Z,58.40
2022-08-26T17:09:49.265Z,57.91
2022-08-26T17:13:35.746Z,58.03
2022-08-26T17:17:14.181Z,58.53
2022-08-26T17:20:52.738Z,58.66
2022-08-26T17:24:33.998Z,58.83
2022-08-26T17:28:13.561Z,59.35
2022-08-26T17:31:51.728Z,59.62
2022-08-26T17:35:28.674Z,59.55
2022-08-26T17:39:05.680Z,59.81
2022-08-26T17:42:43.917Z,59.76
2022-08-26T17:46:21.463Z,59.81
2022-08-26T17:50:00.617Z,60.24
2022-08-26T17:53:39.498Z,60.04
2022-08-26T17:57:16.480Z,60.16
2022-08-26T18:00:56.695Z,60.74
2022-08-26T18:04:34.460Z,61.10
2022-08-26T18:08:12.254Z,61.42
2022-08-26T18:11:51.935Z,61.58
2022-08-26T18:15:29.695Z,62.46
2022-08-26T18:19:07.400Z,63.01
2022-08-26T18:22:47.317Z,62.90
2022-08-26T18:26:37.087Z,64.88
2022-08-26T18:30:18.931Z,65.85
2022-08-26T18:33:58.875Z,66.35
2022-08-26T18:37:36.477Z,66.50
2022-08-26T18:41:14.801Z,66.77
2022-08-26T18:44:51.678Z,67.04
2022-08-26T18:48:29.893Z,67.99
2022-08-26T18:52:07.131Z,68.84
2022-08-26T18:55:45.636Z,68.45
2022-08-26T18:59:28.804Z,67.39
2022-08-26T19:03:08.292Z,62.74
2022-08-26T19:06:57.094Z,54.63
2022-08-26T19:10:39.764Z,52.51
2022-08-26T19:14:18.267Z,50.21
2022-08-26T19:17:55.802Z,49.71
2022-08-26T19:21:35.487Z,50.21
2022-08-26T19:25:12.881Z,50.76
2022-08-26T19:28:51.404Z,49.65
2022-08-26T19:32:30.654Z,50.16
2022-08-26T19:36:14.784Z,48.05
2022-08-26T19:39:52.756Z,47.98
2022-08-26T19:43:30.608Z,48.63
2022-08-26T19:47:11.089Z,48.41
2022-08-26T19:50:48.934Z,49.23
2022-08-26T19:54:26.748Z,48.90
2022-08-26T19:58:03.783Z,48.76
2022-08-26T20:01:41.170Z,48.80
2022-08-26T20:05:21.774Z,47.79
2022-08-26T20:09:00.611Z,47.47
2022-08-26T20:12:37.930Z,46.61
2022-08-26T20:16:17.323Z,46.80
2022-08-26T20:19:55.037Z,46.45
2022-08-26T20:23:32.699Z,46.31
2022-08-26T20:27:11.390Z,45.02
2022-08-26T20:30:48.590Z,44.74
2022-08-26T20:34:27.139Z,44.67
2022-08-26T20:38:04.753Z,44.44
2022-08-26T20:41:44.674Z,44.13
2022-08-26T20:45:22.785Z,43.86
2022-08-26T20:49:00.832Z,42.40
2022-08-26T20:52:38.400Z,42.12
2022-08-26T20:56:18.224Z,41.26
2022-08-26T20:59:55.882Z,41.59
2022-08-26T21:03:33.837Z,41.48
2022-08-26T21:07:11.786Z,41.46
2022-08-26T21:10:49.961Z,40.53
2022-08-26T21:14:30.049Z,40.04
2022-08-26T21:18:07.737Z,40.63
2022-08-26T21:21:47.653Z,40.34
2022-08-26T21:25:25.348Z,40.13
2022-08-26T21:29:05.315Z,41.24
2022-08-26T21:32:43.244Z,41.31
2022-08-26T21:36:20.923Z,41.89
2022-08-26T21:40:00.038Z,42.40
2022-08-26T21:43:39.050Z,42.96
2022-08-26T21:47:17.158Z,44.02
2022-08-26T21:50:54.964Z,45.03
2022-08-26T21:54:32.568Z,45.71
2022-08-26T21:58:10.403Z,45.92
2022-08-26T22:01:48.475Z,46.88
2022-08-26T22:05:27.475Z,46.41
2022-08-26T22:09:06.203Z,46.12
2022-08-26T22:12:43.987Z,46.49
2022-08-26T22:16:21.895Z,46.14
2022-08-26T22:20:00.007Z,45.57
2022-08-26T22:23:38.969Z,45.20
2022-08-26T22:27:16.197Z,45.39
2022-08-26T22:30:53.388Z,45.41
2022-08-26T22:34:30.786Z,45.38
2022-08-26T22:38:09.672Z,45.37
2022-08-26T22:41:48.925Z,45.37
2022-08-26T22:45:27.435Z,45.25
2022-08-26T22:49:04.993Z,45.01
2022-08-26T22:52:42.103Z,45.41
2022-08-26T22:56:21.290Z,45.78
2022-08-26T22:59:58.645Z,46.61
2022-08-26T23:03:37.057Z,46.95
2022-08-26T23:07:14.605Z,46.95
2022-08-26T23:10:52.524Z,46.92
2022-08-26T23:14:32.179Z,47.10
2022-08-26T23:18:10.471Z,47.43
2022-08-26T23:21:49.816Z,47.51
2022-08-26T23:25:28.567Z,47.99
2022-08-26T23:29:07.988Z,48.12
2022-08-26T23:32:45.533Z,48.09
2022-08-26T23:36:23.183Z,48.04
2022-08-26T23:40:09.139Z,48.33
2022-08-26T23:43:46.369Z,48.63
2022-08-26T23:47:25.190Z,48.84
2022-08-26T23:51:03.442Z,48.99
2022-08-26T23:54:41.036Z,49.28
2022-08-26T23:58:20.202Z,49.77
